createdAt,value
2019-04-23T00:00:45.485Z,37.76
2019-04-23T00:01:49.233Z,37.76
2019-04-23T00:02:53.681Z,37.96
2019-04-23T00:03:47.192Z,37.94
2019-04-23T00:04:42.644Z,38.06
2019-04-23T00:05:47.797Z,37.94
2019-04-23T00:06:59.243Z,38.36
2019-04-23T00:07:50.835Z,38.06
2019-04-23T00:08:50.220Z,38.06
2019-04-23T00:09:51.483Z,37.76
2019-04-23T00:10:43.121Z,38.06
2019-04-23T00:11:45.866Z,37.96
2019-04-23T00:15:00.662Z,38.46
2019-04-23T00:15:53.211Z,37.85
2019-04-23T00:16:44.795Z,38.46
2019-04-23T00:19:53.680Z,38.36
2019-04-23T00:20:47.889Z,38.46
2019-04-23T00:21:48.265Z,38.16
2019-04-23T00:22:53.304Z,37.96
2019-04-23T00:23:52.997Z,37.96
2019-04-23T00:25:19.109Z,38.36
2019-04-23T00:25:54.044Z,37.96
2019-04-23T00:26:47.604Z,38.26
2019-04-23T00:28:50.758Z,38.06
2019-04-23T00:29:53.137Z,37.96
2019-04-23T00:30:48.286Z,38.06
2019-04-23T00:31:47.662Z,37.96
2019-04-23T00:32:48.121Z,37.96
2019-04-23T00:33:43.137Z,38.14
2019-04-23T00:34:49.698Z,38.16
2019-04-23T00:35:44.079Z,37.96
2019-04-23T00:36:44.563Z,37.96
2019-04-23T00:37:45.790Z,38.16
2019-04-23T00:38:45.453Z,38.06
2019-04-23T00:39:49.977Z,38.26
2019-04-23T00:40:46.773Z,38.66
2019-04-23T00:41:44.191Z,38.86
2019-04-23T00:43:48.760Z,38.76
2019-04-23T00:44:49.816Z,38.66
2019-04-23T00:45:44.578Z,38.76
2019-04-23T00:46:48.984Z,38.96
2019-04-23T00:47:48.635Z,39.16
2019-04-23T00:48:52.181Z,39.16
2019-04-23T00:49:51.727Z,39.16
2019-04-23T00:50:52.958Z,39.06
2019-04-23T00:51:56.995Z,39.06
2019-04-23T00:52:46.130Z,38.96
2019-04-23T00:53:44.196Z,38.96
2019-04-23T00:54:50.492Z,38.76
2019-04-23T00:55:47.715Z,38.66
2019-04-23T00:56:44.695Z,38.96
2019-04-23T00:57:43.066Z,38.76
2019-04-23T00:59:57.726Z,39.06
2019-04-23T01:00:46.007Z,38.86
2019-04-23T01:01:52.860Z,39.06
2019-04-23T01:02:45.761Z,38.86
2019-04-23T01:03:39.447Z,38.96
2019-04-23T01:04:47.683Z,38.96
2019-04-23T01:05:42.220Z,38.86
2019-04-23T01:06:47.631Z,38.88
2019-04-23T01:07:47.581Z,38.76
2019-04-23T01:08:44.143Z,38.86
2019-04-23T01:09:45.845Z,38.66
2019-04-23T01:10:43.077Z,38.66
2019-04-23T01:11:43.490Z,38.86
2019-04-23T01:12:51.687Z,38.76
2019-04-23T01:14:48.670Z,38.66
2019-04-23T01:15:46.784Z,38.86
2019-04-23T01:17:02.783Z,39.06
2019-04-23T01:17:57.722Z,38.86
2019-04-23T01:19:48.435Z,39.08
2019-04-23T01:21:24.371Z,38.86
2019-04-23T01:22:23.202Z,39.16
2019-04-23T01:23:28.565Z,38.56
2019-04-23T01:24:28.724Z,39.06
2019-04-23T01:25:33.967Z,38.96
2019-04-23T01:26:42.094Z,38.88
2019-04-23T01:28:53.834Z,38.68
2019-04-23T01:29:54.534Z,39.08
2019-04-23T01:32:51.820Z,38.86
2019-04-23T01:34:11.113Z,38.56
2019-04-23T01:34:59.496Z,38.88
2019-04-23T01:36:03.170Z,38.58
2019-04-23T01:36:48.635Z,38.58
2019-04-23T01:37:46.693Z,38.58
2019-04-23T01:39:06.424Z,38.66
2019-04-23T01:39:53.194Z,38.88
2019-04-23T01:40:45.872Z,38.98
2019-04-23T01:43:46.095Z,38.68
2019-04-23T01:44:52.986Z,38.98
2019-04-23T01:45:44.383Z,38.98
2019-04-23T01:46:49.500Z,38.68
2019-04-23T01:47:49.604Z,38.58
2019-04-23T01:48:51.986Z,38.68
2019-04-23T01:49:58.209Z,38.68
2019-04-23T01:51:55.712Z,39.06
2019-04-23T01:53:13.141Z,38.58
2019-04-23T01:54:02.936Z,38.78
2019-04-23T01:54:52.000Z,38.58
2019-04-23T01:55:51.086Z,38.58
2019-04-23T01:56:50.912Z,38.68
2019-04-23T01:57:56.047Z,38.88
2019-04-23T01:58:53.916Z,38.78
2019-04-23T01:59:57.483Z,38.78
2019-04-23T02:00:47.734Z,38.68
2019-04-23T02:01:50.291Z,38.88
2019-04-23T02:02:55.459Z,38.78
2019-04-23T02:04:54.214Z,39.08
2019-04-23T02:05:49.083Z,38.58
2019-04-23T02:06:55.899Z,38.98
2019-04-23T02:07:58.365Z,38.78
2019-04-23T02:08:56.906Z,38.58
2019-04-23T02:10:01.060Z,38.98
2019-04-23T02:10:56.317Z,38.58
2019-04-23T02:11:53.638Z,38.38
2019-04-23T02:12:57.007Z,38.68
2019-04-23T02:13:49.111Z,38.98
2019-04-23T02:14:50.142Z,38.98
2019-04-23T02:15:47.411Z,38.68
2019-04-23T02:16:53.220Z,38.98
2019-04-23T02:17:52.047Z,38.38
2019-04-23T02:18:50.749Z,38.18
2019-04-23T02:19:53.197Z,38.58
2019-04-23T02:20:50.919Z,38.48
2019-04-23T02:21:55.015Z,38.58
2019-04-23T02:23:01.389Z,38.38
2019-04-23T02:23:50.778Z,38.48
2019-04-23T02:24:54.530Z,38.38
2019-04-23T02:27:05.960Z,38.38
2019-04-23T02:27:56.241Z,38.38
2019-04-23T02:28:53.458Z,38.38
2019-04-23T02:33:19.391Z,38.38
2019-04-23T02:36:57.642Z,39.48
2019-04-23T02:38:00.617Z,39.28
2019-04-23T02:39:57.571Z,39.28
2019-04-23T02:41:12.503Z,38.98
2019-04-23T02:43:59.619Z,38.98
2019-04-23T02:44:55.879Z,39.38
2019-04-23T02:46:59.874Z,39.28
2019-04-23T02:48:08.576Z,39.48
2019-04-23T02:49:09.785Z,38.48
2019-04-23T02:52:57.011Z,39.58
2019-04-23T02:54:04.084Z,39.78
2019-04-23T02:57:05.775Z,38.98
2019-04-23T02:58:16.036Z,38.98
2019-04-23T03:02:05.808Z,39.08
2019-04-23T03:04:02.378Z,39.48
2019-04-23T03:05:57.365Z,39.48
2019-04-23T03:07:57.692Z,39.48
2019-04-23T03:12:02.630Z,39.58
2019-04-23T03:12:58.747Z,39.50
2019-04-23T03:14:59.003Z,39.20
2019-04-23T03:16:12.083Z,39.58
2019-04-23T03:18:04.722Z,39.00
2019-04-23T03:19:59.079Z,39.28
2019-04-23T03:21:11.660Z,39.20
2019-04-23T03:21:56.187Z,39.88
2019-04-23T03:23:03.214Z,39.28
2019-04-23T03:24:04.980Z,39.38
2019-04-23T03:25:10.030Z,39.58
2019-04-23T03:26:01.976Z,39.80
2019-04-23T03:27:11.038Z,39.60
2019-04-23T03:27:50.014Z,39.58
2019-04-23T03:35:00.195Z,39.70
2019-04-23T03:37:56.293Z,39.38
2019-04-23T03:38:55.948Z,38.98
2019-04-23T03:41:15.361Z,38.96
2019-04-23T03:41:53.923Z,38.04
2019-04-23T03:43:01.339Z,37.92
2019-04-23T03:43:46.516Z,37.70
2019-04-23T03:45:10.084Z,36.88
2019-04-23T03:46:12.360Z,36.28
2019-04-23T03:46:51.431Z,35.66
2019-04-23T03:47:56.216Z,35.44
2019-04-23T03:50:44.734Z,34.93
2019-04-23T03:52:54.799Z,34.61
2019-04-23T03:54:03.667Z,34.61
2019-04-23T03:56:12.462Z,34.91
2019-04-23T03:57:03.325Z,34.61
2019-04-23T03:57:52.334Z,34.11
2019-04-23T03:59:11.432Z,34.09
2019-04-23T04:00:22.873Z,34.31
2019-04-23T04:00:58.743Z,34.01
2019-04-23T04:02:04.403Z,34.21
2019-04-23T04:04:49.785Z,34.91
2019-04-23T04:05:57.916Z,34.71
2019-04-23T04:08:15.975Z,35.03
2019-04-23T04:11:02.487Z,34.63
2019-04-23T04:11:54.989Z,34.73
2019-04-23T04:12:45.681Z,35.13
2019-04-23T04:14:04.814Z,35.05
2019-04-23T04:14:59.165Z,35.35
2019-04-23T04:18:57.339Z,36.05
2019-04-23T04:20:02.794Z,35.64
2019-04-23T04:21:01.202Z,34.86
2019-04-23T04:22:00.250Z,35.55
2019-04-23T04:24:07.528Z,35.86
2019-04-23T04:24:52.049Z,35.96
2019-04-23T04:26:59.461Z,35.98
2019-04-23T04:28:05.189Z,35.96
2019-04-23T04:29:01.278Z,36.28
2019-04-23T04:30:00.955Z,36.18
2019-04-23T04:30:48.349Z,36.08
2019-04-23T04:31:58.671Z,36.48
2019-04-23T04:33:19.579Z,36.60
2019-04-23T04:34:29.099Z,36.50
2019-04-23T04:35:14.717Z,37.00
2019-04-23T04:35:58.998Z,36.60
2019-04-23T04:37:22.347Z,37.10
2019-04-23T04:39:02.931Z,37.30
2019-04-23T04:41:09.777Z,37.82
2019-04-23T04:44:05.458Z,37.82
2019-04-23T04:46:10.005Z,51.17
2019-04-23T04:46:50.513Z,49.16
2019-04-23T04:47:49.505Z,52.37
2019-04-23T04:48:56.539Z,49.46
2019-04-23T04:51:00.444Z,48.98
2019-04-23T04:52:58.273Z,47.05
2019-04-23T04:54:04.130Z,45.67
2019-04-23T04:54:53.955Z,44.87
2019-04-23T04:56:01.376Z,44.67
2019-04-23T04:58:02.921Z,44.56
2019-04-23T04:58:52.900Z,44.36
2019-04-23T05:01:04.236Z,44.67
2019-04-23T05:02:00.473Z,44.36
2019-04-23T05:03:45.864Z,44.67
2019-04-23T05:06:11.491Z,44.56
2019-04-23T05:07:02.186Z,44.79
2019-04-23T05:07:54.863Z,45.09
2019-04-23T05:08:54.518Z,44.59
2019-04-23T05:12:59.883Z,45.09
2019-04-23T05:13:49.823Z,44.26
2019-04-23T05:14:58.743Z,43.78
2019-04-23T05:15:56.343Z,44.06
2019-04-23T05:16:50.670Z,44.38
2019-04-23T05:18:01.586Z,44.28
2019-04-23T05:18:52.219Z,43.48
2019-04-23T05:19:53.375Z,43.68
2019-04-23T05:20:53.461Z,42.97
2019-04-23T05:21:54.574Z,42.58
2019-04-23T05:23:00.475Z,42.78
2019-04-23T05:24:45.233Z,42.27
2019-04-23T05:25:57.973Z,42.18
2019-04-23T05:26:43.006Z,42.18
2019-04-23T05:27:53.527Z,42.30
2019-04-23T05:29:56.057Z,41.97
2019-04-23T05:30:57.042Z,42.10
2019-04-23T05:31:37.713Z,41.99
2019-04-23T05:32:50.407Z,41.49
2019-04-23T05:33:52.318Z,41.39
2019-04-23T05:34:46.675Z,41.99
2019-04-23T05:36:09.170Z,41.79
2019-04-23T05:36:45.726Z,41.89
2019-04-23T05:38:02.550Z,41.59
2019-04-23T05:39:11.150Z,40.99
2019-04-23T05:39:50.119Z,40.39
2019-04-23T05:41:45.255Z,40.79
2019-04-23T05:42:49.955Z,41.09
2019-04-23T05:43:51.065Z,40.48
2019-04-23T05:44:51.017Z,39.98
2019-04-23T05:45:48.381Z,40.08
2019-04-23T05:46:48.645Z,40.08
2019-04-23T05:47:56.841Z,39.69
2019-04-23T05:48:52.295Z,39.98
2019-04-23T05:51:57.422Z,38.88
2019-04-23T05:53:10.159Z,38.58
2019-04-23T05:53:45.061Z,38.58
2019-04-23T05:54:56.334Z,38.58
2019-04-23T05:55:47.636Z,38.38
2019-04-23T05:56:46.762Z,38.38
2019-04-23T05:57:45.701Z,37.77
2019-04-23T05:58:53.150Z,37.57
2019-04-23T05:59:46.874Z,38.07
2019-04-23T06:00:54.507Z,37.79
2019-04-23T06:01:55.703Z,37.67
2019-04-23T06:02:57.189Z,37.47
2019-04-23T06:03:52.326Z,36.47
2019-04-23T06:05:04.097Z,37.49
2019-04-23T06:06:55.792Z,37.39
2019-04-23T06:07:49.785Z,36.79
2019-04-23T06:08:46.711Z,36.69
2019-04-23T06:09:50.439Z,36.49
2019-04-23T06:10:48.145Z,36.08
2019-04-23T06:12:44.760Z,36.47
2019-04-23T06:13:56.123Z,36.89
2019-04-23T06:15:46.754Z,36.49
2019-04-23T06:17:03.222Z,36.27
2019-04-23T06:17:52.606Z,36.97
2019-04-23T06:19:55.090Z,37.07
2019-04-23T06:20:59.013Z,37.08
2019-04-23T06:22:51.178Z,37.08
2019-04-23T06:24:45.153Z,37.17
2019-04-23T06:25:59.673Z,37.49
2019-04-23T06:27:51.606Z,36.36
2019-04-23T06:28:50.096Z,37.79
2019-04-23T06:29:44.665Z,37.47
2019-04-23T06:31:52.605Z,36.89
2019-04-23T06:32:42.976Z,36.79
2019-04-23T06:33:46.874Z,37.27
2019-04-23T06:35:01.503Z,37.39
2019-04-23T06:35:53.375Z,37.89
2019-04-23T06:36:46.666Z,37.27
2019-04-23T06:39:48.322Z,36.57
2019-04-23T06:40:50.323Z,37.29
2019-04-23T06:41:49.908Z,37.08
2019-04-23T06:42:42.988Z,37.08
2019-04-23T06:43:49.995Z,36.99
2019-04-23T06:44:45.749Z,37.37
2019-04-23T06:45:42.867Z,37.49
2019-04-23T06:46:50.681Z,37.27
2019-04-23T06:47:45.196Z,36.47
2019-04-23T06:48:47.262Z,36.87
2019-04-23T06:50:52.667Z,37.37
2019-04-23T06:51:51.883Z,37.27
2019-04-23T06:52:39.395Z,36.38
2019-04-23T06:53:43.091Z,37.07
2019-04-23T06:54:49.095Z,36.57
2019-04-23T06:55:50.926Z,36.57
2019-04-23T06:56:54.354Z,36.38
2019-04-23T06:57:52.083Z,36.79
2019-04-23T06:58:43.302Z,36.58
2019-04-23T07:00:02.422Z,36.36
2019-04-23T07:00:51.321Z,36.36
2019-04-23T07:01:56.211Z,36.58
2019-04-23T07:02:47.306Z,36.47
2019-04-23T07:03:55.748Z,36.36
2019-04-23T07:05:06.657Z,36.29
2019-04-23T07:05:55.084Z,36.29
2019-04-23T07:06:58.190Z,36.49
2019-04-23T07:09:05.272Z,36.49
2019-04-23T07:09:45.564Z,36.47
2019-04-23T07:10:49.074Z,36.47
2019-04-23T07:11:43.017Z,36.58
2019-04-23T07:12:50.465Z,36.58
2019-04-23T07:13:54.653Z,36.57
2019-04-23T07:15:58.497Z,36.49
2019-04-23T07:16:46.884Z,36.16
2019-04-23T07:17:41.029Z,36.58
2019-04-23T07:18:51.359Z,36.57
2019-04-23T07:20:50.578Z,36.38
2019-04-23T07:21:42.104Z,36.57
2019-04-23T07:22:50.622Z,36.38
2019-04-23T07:23:54.529Z,36.47
2019-04-23T07:24:50.870Z,36.38
2019-04-23T07:25:48.462Z,36.69
2019-04-23T07:26:52.812Z,36.69
2019-04-23T07:27:43.091Z,37.08
2019-04-23T07:28:56.248Z,36.97
2019-04-23T07:30:55.899Z,36.97
2019-04-23T07:31:51.505Z,36.99
2019-04-23T07:33:50.680Z,36.58
2019-04-23T07:34:49.518Z,37.39
2019-04-23T07:35:45.571Z,37.08
2019-04-23T07:36:47.355Z,36.36
2019-04-23T07:37:54.805Z,36.29
2019-04-23T07:38:59.621Z,36.49
2019-04-23T07:39:57.075Z,36.69
2019-04-23T07:40:55.309Z,36.36
2019-04-23T07:43:00.091Z,36.47
2019-04-23T07:43:50.753Z,36.57
2019-04-23T07:44:54.521Z,36.49
2019-04-23T07:45:53.083Z,36.29
2019-04-23T07:46:53.342Z,36.08
2019-04-23T07:47:55.914Z,36.08
2019-04-23T07:48:41.932Z,36.49
2019-04-23T07:49:50.503Z,36.36
2019-04-23T07:52:51.328Z,36.77
2019-04-23T07:54:52.563Z,36.97
2019-04-23T07:55:49.642Z,37.27
2019-04-23T07:56:54.278Z,36.67
2019-04-23T07:57:54.990Z,36.36
2019-04-23T07:58:39.346Z,36.36
2019-04-23T07:59:48.689Z,36.55
2019-04-23T08:01:01.343Z,35.95
2019-04-23T08:01:49.568Z,35.03
2019-04-23T08:02:43.437Z,35.11
2019-04-23T08:03:48.243Z,35.41
2019-04-23T08:05:06.333Z,35.30
2019-04-23T08:05:43.694Z,34.69
2019-04-23T08:06:49.072Z,34.98
2019-04-23T08:07:49.580Z,34.86
2019-04-23T08:09:48.008Z,34.64
2019-04-23T08:11:10.988Z,33.73
2019-04-23T08:12:02.979Z,33.83
2019-04-23T08:12:46.945Z,32.93
2019-04-23T08:14:53.478Z,36.01
2019-04-23T08:15:46.561Z,35.91
2019-04-23T08:16:57.892Z,35.53
2019-04-23T08:17:45.091Z,36.73
2019-04-23T08:20:49.371Z,38.23
2019-04-23T08:21:46.348Z,37.43
2019-04-23T08:22:48.019Z,37.85
2019-04-23T08:23:49.600Z,38.43
2019-04-23T08:24:55.484Z,39.95
2019-04-23T08:25:56.283Z,40.15
2019-04-23T08:26:50.304Z,40.35
2019-04-23T08:27:43.657Z,40.45
2019-04-23T08:29:06.203Z,41.66
2019-04-23T08:29:41.394Z,41.05
2019-04-23T08:30:49.920Z,42.25
2019-04-23T08:31:52.745Z,41.85
2019-04-23T08:32:47.315Z,42.66
2019-04-23T08:33:49.779Z,43.96
2019-04-23T08:35:51.406Z,42.46
2019-04-23T08:36:50.104Z,42.96
2019-04-23T08:38:04.590Z,43.85
2019-04-23T08:38:44.668Z,43.55
2019-04-23T08:39:43.427Z,43.66
2019-04-23T08:40:55.749Z,44.06
2019-04-23T08:41:59.524Z,44.26
2019-04-23T08:45:01.291Z,43.46
2019-04-23T08:45:48.469Z,43.66
2019-04-23T08:46:56.843Z,43.76
2019-04-23T08:47:53.764Z,43.55
2019-04-23T08:48:55.990Z,42.05
2019-04-23T08:50:44.129Z,42.46
2019-04-23T08:51:52.214Z,43.16
2019-04-23T08:52:43.085Z,43.55
2019-04-23T08:54:52.013Z,43.55
2019-04-23T08:55:51.628Z,43.66
2019-04-23T08:56:48.763Z,43.55
2019-04-23T08:57:43.081Z,43.46
2019-04-23T08:58:46.346Z,43.66
2019-04-23T09:01:58.008Z,42.16
2019-04-23T09:03:39.449Z,40.55
2019-04-23T09:04:55.435Z,40.75
2019-04-23T09:06:47.188Z,39.55
2019-04-23T09:07:56.930Z,40.27
2019-04-23T09:08:43.763Z,39.27
2019-04-23T09:09:51.679Z,38.27
2019-04-23T09:10:51.742Z,38.57
2019-04-23T09:13:26.328Z,39.27
2019-04-23T09:13:53.439Z,38.57
2019-04-23T09:14:44.971Z,38.87
2019-04-23T09:17:47.594Z,37.87
2019-04-23T09:18:48.858Z,38.97
2019-04-23T09:20:05.317Z,38.77
2019-04-23T09:20:38.707Z,38.67
2019-04-23T09:21:53.284Z,38.97
2019-04-23T09:22:46.903Z,38.77
2019-04-23T09:23:46.662Z,38.89
2019-04-23T09:25:08.424Z,38.57
2019-04-23T09:26:51.655Z,38.68
2019-04-23T09:27:45.309Z,38.79
2019-04-23T09:28:51.740Z,38.29
2019-04-23T09:29:51.569Z,38.77
2019-04-23T09:30:49.677Z,38.59
2019-04-23T09:32:07.370Z,38.59
2019-04-23T09:32:51.630Z,38.59
2019-04-23T09:34:52.981Z,38.68
2019-04-23T09:35:44.611Z,38.09
2019-04-23T09:36:51.682Z,38.89
2019-04-23T09:37:47.191Z,39.09
2019-04-23T09:38:44.912Z,38.59
2019-04-23T09:39:55.154Z,38.39
2019-04-23T09:41:03.045Z,38.89
2019-04-23T09:41:38.208Z,38.68
2019-04-23T09:42:54.333Z,38.99
2019-04-23T09:43:48.520Z,38.59
2019-04-23T09:45:48.449Z,39.09
2019-04-23T09:46:45.137Z,37.79
2019-04-23T09:47:51.867Z,38.09
2019-04-23T09:48:51.403Z,37.59
2019-04-23T09:49:50.160Z,38.18
2019-04-23T09:50:52.442Z,38.09
2019-04-23T09:51:49.342Z,37.79
2019-04-23T09:53:01.867Z,38.18
2019-04-23T09:53:48.751Z,37.79
2019-04-23T09:54:56.118Z,38.18
2019-04-23T09:55:53.604Z,37.38
2019-04-23T09:57:52.247Z,37.48
2019-04-23T09:58:45.085Z,36.68
2019-04-23T09:59:49.842Z,37.08
2019-04-23T10:00:46.943Z,36.78
2019-04-23T10:01:50.126Z,36.78
2019-04-23T10:02:35.391Z,36.68
2019-04-23T10:03:33.407Z,36.78
2019-04-23T10:04:31.986Z,36.18
2019-04-23T10:05:31.119Z,35.58
2019-04-23T10:06:24.456Z,36.18
2019-04-23T10:07:30.019Z,35.68
2019-04-23T10:08:26.817Z,35.58
2019-04-23T10:09:18.840Z,35.98
2019-04-23T10:10:18.553Z,35.58
2019-04-23T10:11:18.176Z,35.28
2019-04-23T10:12:17.723Z,34.28
2019-04-23T10:13:17.961Z,34.08
2019-04-23T10:14:18.338Z,34.28
2019-04-23T10:15:24.322Z,34.28
2019-04-23T10:16:21.381Z,34.08
2019-04-23T10:17:18.177Z,34.28
2019-04-23T10:18:18.295Z,34.48
2019-04-23T10:19:17.204Z,34.67
2019-04-23T10:20:18.244Z,34.59
2019-04-23T10:21:17.462Z,34.67
2019-04-23T10:22:17.398Z,33.78
2019-04-23T10:23:16.998Z,34.28
2019-04-23T10:24:17.085Z,33.78
2019-04-23T10:25:17.244Z,33.98
2019-04-23T10:26:16.979Z,33.58
2019-04-23T10:27:17.125Z,33.78
2019-04-23T10:28:18.704Z,33.67
2019-04-23T10:29:18.166Z,34.17
2019-04-23T10:30:17.729Z,34.19
2019-04-23T10:31:16.937Z,33.89
2019-04-23T10:32:17.704Z,33.79
2019-04-23T10:33:16.895Z,33.69
2019-04-23T10:34:17.083Z,33.79
2019-04-23T10:35:28.496Z,33.79
2019-04-23T10:36:21.487Z,33.78
2019-04-23T10:37:31.422Z,34.29
2019-04-23T10:38:20.264Z,34.19
2019-04-23T10:39:23.323Z,34.59
2019-04-23T10:40:23.909Z,33.19
2019-04-23T10:41:20.202Z,33.89
2019-04-23T10:42:18.158Z,34.29
2019-04-23T10:43:17.202Z,33.99
2019-04-23T10:44:17.308Z,33.39
2019-04-23T10:45:30.224Z,33.99
2019-04-23T10:46:36.505Z,33.59
2019-04-23T10:47:44.779Z,33.39
2019-04-23T10:49:11.440Z,33.87
2019-04-23T10:50:46.500Z,33.78
2019-04-23T10:51:51.645Z,33.98
2019-04-23T10:52:53.763Z,34.58
2019-04-23T10:54:02.791Z,34.59
2019-04-23T10:54:45.368Z,34.80
2019-04-23T10:56:46.298Z,35.30
2019-04-23T10:57:39.430Z,35.19
2019-04-23T10:58:38.557Z,35.28
2019-04-23T11:00:44.990Z,35.80
2019-04-23T11:01:57.194Z,35.68
2019-04-23T11:02:47.568Z,36.38
2019-04-23T11:04:02.803Z,36.28
2019-04-23T11:04:54.348Z,36.30
2019-04-23T11:05:53.932Z,36.50
2019-04-23T11:06:45.226Z,36.28
2019-04-23T11:07:53.722Z,36.38
2019-04-23T11:08:45.540Z,36.18
2019-04-23T11:10:48.432Z,36.38
2019-04-23T11:11:47.030Z,36.38
2019-04-23T11:12:49.057Z,36.28
2019-04-23T11:13:50.285Z,36.18
2019-04-23T11:14:53.113Z,36.48
2019-04-23T11:16:01.478Z,36.58
2019-04-23T11:17:51.945Z,36.68
2019-04-23T11:18:56.705Z,36.68
2019-04-23T11:20:01.402Z,36.18
2019-04-23T11:22:46.481Z,36.48
2019-04-23T11:25:45.123Z,35.18
2019-04-23T11:28:44.941Z,35.08
2019-04-23T11:29:50.559Z,34.98
2019-04-23T11:30:40.880Z,34.58
2019-04-23T11:31:52.341Z,34.88
2019-04-23T11:32:57.309Z,34.98
2019-04-23T11:33:57.452Z,34.28
2019-04-23T11:35:04.830Z,34.98
2019-04-23T11:40:36.994Z,34.78
2019-04-23T11:41:51.692Z,34.48
2019-04-23T11:42:49.465Z,34.78
2019-04-23T11:43:50.738Z,34.88
2019-04-23T11:44:49.544Z,34.67
2019-04-23T11:45:59.209Z,35.08
2019-04-23T11:46:53.885Z,34.67
2019-04-23T11:48:13.960Z,35.58
2019-04-23T11:49:53.318Z,34.58
2019-04-23T11:52:48.654Z,35.58
2019-04-23T11:53:51.017Z,35.18
2019-04-23T11:54:43.143Z,35.08
2019-04-23T11:56:02.645Z,35.08
2019-04-23T11:59:59.034Z,35.28
2019-04-23T12:00:51.298Z,35.08
2019-04-23T12:01:52.687Z,34.98
2019-04-23T12:03:57.122Z,35.18
2019-04-23T12:04:57.542Z,34.88
2019-04-23T12:06:07.810Z,35.38
2019-04-23T12:06:51.088Z,35.38
2019-04-23T12:07:41.282Z,35.18
2019-04-23T12:08:44.417Z,35.18
2019-04-23T12:09:46.476Z,35.48
2019-04-23T12:12:39.599Z,36.38
2019-04-23T12:15:49.943Z,36.88
2019-04-23T12:17:05.551Z,36.16
2019-04-23T12:18:03.258Z,36.46
2019-04-23T12:18:57.972Z,36.16
2019-04-23T12:19:57.585Z,35.56
2019-04-23T12:21:01.652Z,36.26
2019-04-23T12:21:53.135Z,36.18
2019-04-23T12:22:46.763Z,36.46
2019-04-23T12:23:56.636Z,35.66
2019-04-23T12:25:48.438Z,35.66
2019-04-23T12:26:53.881Z,36.36
2019-04-23T12:27:39.049Z,36.07
2019-04-23T12:28:44.130Z,36.46
2019-04-23T12:29:46.239Z,36.66
2019-04-23T12:30:45.168Z,35.96
2019-04-23T12:31:47.995Z,36.57
2019-04-23T12:33:50.198Z,36.36
2019-04-23T12:34:52.950Z,36.87
2019-04-23T12:35:39.047Z,37.77
2019-04-23T12:38:38.815Z,39.65
2019-04-23T12:39:49.787Z,39.65
2019-04-23T12:40:56.111Z,41.46
2019-04-23T12:41:51.198Z,38.75
2019-04-23T12:42:59.025Z,40.15
2019-04-23T12:43:40.058Z,43.55
2019-04-23T12:44:53.427Z,44.26
2019-04-23T12:45:52.017Z,44.96
2019-04-23T12:46:50.479Z,42.66
2019-04-23T12:48:49.372Z,45.74
2019-04-23T12:50:51.626Z,44.56
2019-04-23T12:51:50.262Z,45.96
2019-04-23T12:52:47.650Z,48.66
2019-04-23T12:53:57.671Z,46.36
2019-04-23T12:57:00.697Z,47.26
2019-04-23T12:57:46.717Z,48.66
2019-04-23T12:58:31.074Z,49.04
2019-04-23T12:59:44.306Z,50.96
2019-04-23T13:00:54.505Z,50.34
2019-04-23T13:01:51.109Z,50.54
2019-04-23T13:02:44.280Z,56.85
2019-04-23T13:03:41.283Z,52.34
2019-04-23T13:04:48.673Z,54.94
2019-04-23T13:05:49.151Z,54.64
2019-04-23T13:06:44.083Z,52.44
2019-04-23T13:07:43.665Z,52.72
2019-04-23T13:08:46.618Z,53.32
2019-04-23T13:09:52.481Z,53.02
2019-04-23T13:11:45.078Z,52.72
2019-04-23T13:13:45.903Z,53.32
2019-04-23T13:14:53.124Z,52.12
2019-04-23T13:15:40.707Z,52.32
2019-04-23T13:16:55.265Z,51.12
2019-04-23T13:18:47.031Z,51.59
2019-04-23T13:19:58.144Z,51.09
2019-04-23T13:20:38.486Z,50.49
2019-04-23T13:22:51.131Z,49.29
2019-04-23T13:23:44.228Z,49.40
2019-04-23T13:24:48.982Z,48.27
2019-04-23T13:25:47.379Z,46.99
2019-04-23T13:26:52.580Z,47.39
2019-04-23T13:29:51.792Z,44.49
2019-04-23T13:30:46.660Z,43.99
2019-04-23T13:31:39.815Z,44.12
2019-04-23T13:32:48.846Z,44.71
2019-04-23T13:34:51.121Z,44.71
2019-04-23T13:35:55.299Z,42.02
2019-04-23T13:36:45.448Z,41.82
2019-04-23T13:38:45.139Z,41.41
2019-04-23T13:39:44.963Z,41.91
2019-04-23T13:40:46.437Z,41.82
2019-04-23T13:41:46.256Z,42.91
2019-04-23T13:42:45.030Z,42.82
2019-04-23T13:44:47.851Z,43.62
2019-04-23T13:46:03.753Z,43.91
2019-04-23T13:46:40.964Z,43.74
2019-04-23T13:48:36.353Z,42.11
2019-04-23T13:49:51.050Z,42.83
2019-04-23T13:51:40.425Z,41.93
2019-04-23T13:55:42.963Z,42.83
2019-04-23T13:57:12.727Z,42.63
2019-04-23T13:58:04.990Z,42.93
2019-04-23T13:58:50.447Z,43.84
2019-04-23T13:59:46.896Z,43.33
2019-04-23T14:01:41.432Z,42.33
2019-04-23T14:03:54.487Z,43.43
2019-04-23T14:05:41.622Z,41.43
2019-04-23T14:06:46.815Z,41.03
2019-04-23T14:07:48.595Z,41.53
2019-04-23T14:10:04.485Z,41.74
2019-04-23T14:10:48.263Z,41.53
2019-04-23T14:12:01.509Z,41.43
2019-04-23T14:12:53.395Z,41.43
2019-04-23T14:13:49.869Z,41.74
2019-04-23T14:14:49.103Z,42.13
2019-04-23T14:18:02.925Z,39.73
2019-04-23T14:19:48.969Z,39.83
2019-04-23T14:20:45.023Z,39.91
2019-04-23T14:21:37.011Z,39.73
2019-04-23T14:24:54.388Z,39.93
2019-04-23T14:26:01.585Z,39.61
2019-04-23T14:26:39.618Z,40.01
2019-04-23T14:27:48.795Z,40.43
2019-04-23T14:28:44.786Z,40.43
2019-04-23T14:29:50.308Z,40.83
2019-04-23T14:31:00.832Z,40.73
2019-04-23T14:31:44.874Z,40.83
2019-04-23T14:32:49.915Z,40.83
2019-04-23T14:33:56.400Z,40.63
2019-04-23T14:34:55.662Z,40.63
2019-04-23T14:35:46.737Z,40.43
2019-04-23T14:36:42.828Z,40.63
2019-04-23T14:38:02.550Z,40.83
2019-04-23T14:38:43.814Z,40.63
2019-04-23T14:39:47.806Z,40.53
2019-04-23T14:41:44.345Z,40.33
2019-04-23T14:43:49.413Z,40.63
2019-04-23T14:44:43.969Z,40.85
2019-04-23T14:47:48.844Z,40.73
2019-04-23T14:48:47.958Z,40.83
2019-04-23T14:50:39.805Z,41.25
2019-04-23T14:52:00.342Z,41.53
2019-04-23T14:52:50.509Z,41.35
2019-04-23T14:53:46.310Z,41.46
2019-04-23T14:55:25.301Z,41.55
2019-04-23T14:55:56.929Z,41.55
2019-04-23T14:56:45.860Z,40.85
2019-04-23T14:57:52.582Z,41.05
2019-04-23T14:58:50.796Z,41.05
2019-04-23T14:59:45.108Z,41.15
2019-04-23T15:00:59.624Z,41.05
2019-04-23T15:01:42.515Z,41.25
2019-04-23T15:03:08.675Z,41.05
2019-04-23T15:05:56.157Z,41.25
2019-04-23T15:06:50.962Z,41.07
2019-04-23T15:07:46.539Z,41.66
2019-04-23T15:08:49.476Z,41.66
2019-04-23T15:09:43.029Z,41.75
2019-04-23T15:10:55.936Z,41.75
2019-04-23T15:11:58.952Z,41.75
2019-04-23T15:12:45.584Z,41.55
2019-04-23T15:13:47.358Z,41.75
2019-04-23T15:14:57.505Z,41.25
2019-04-23T15:15:48.834Z,41.47
2019-04-23T15:17:40.585Z,41.27
2019-04-23T15:18:52.979Z,41.57
2019-04-23T15:20:51.787Z,41.57
2019-04-23T15:22:57.748Z,41.57
2019-04-23T15:25:15.329Z,42.38
2019-04-23T15:28:17.801Z,41.88
2019-04-23T15:28:18.651Z,41.77
2019-04-23T15:29:33.717Z,41.67
2019-04-23T15:30:50.244Z,42.07
2019-04-23T15:33:55.332Z,41.77
2019-04-23T15:34:45.462Z,41.88
2019-04-23T15:35:59.797Z,41.67
2019-04-23T15:39:46.445Z,42.18
2019-04-23T15:40:48.707Z,41.88
2019-04-23T15:41:49.608Z,42.07
2019-04-23T15:42:50.995Z,42.18
2019-04-23T15:43:53.178Z,42.10
2019-04-23T15:44:43.837Z,42.47
2019-04-23T15:45:46.058Z,41.49
2019-04-23T15:48:55.283Z,42.47
2019-04-23T15:49:49.015Z,42.88
2019-04-23T15:50:43.514Z,42.40
2019-04-23T15:52:58.864Z,41.89
2019-04-23T15:53:44.619Z,41.69
2019-04-23T15:54:42.884Z,41.89
2019-04-23T15:55:49.229Z,41.89
2019-04-23T15:58:58.270Z,41.89
2019-04-23T15:59:48.192Z,42.10
2019-04-23T16:00:42.282Z,41.79
2019-04-23T16:01:37.518Z,41.89
2019-04-23T16:02:14.784Z,42.10
2019-04-23T16:03:15.025Z,42.19
2019-04-23T16:04:16.456Z,41.89
2019-04-23T16:05:15.202Z,42.19
2019-04-23T16:06:18.194Z,41.99
2019-04-23T16:07:32.574Z,42.19
2019-04-23T16:08:51.881Z,41.89
2019-04-23T16:09:49.141Z,42.10
2019-04-23T16:10:49.172Z,42.19
2019-04-23T16:12:50.685Z,41.69
2019-04-23T16:13:53.574Z,41.89
2019-04-23T16:14:49.712Z,41.89
2019-04-23T16:15:46.701Z,41.89
2019-04-23T16:16:45.323Z,41.89
2019-04-23T16:17:41.396Z,42.52
2019-04-23T16:18:41.924Z,42.19
2019-04-23T16:19:46.017Z,42.11
2019-04-23T16:20:51.692Z,41.99
2019-04-23T16:22:01.981Z,41.82